Time;durP1;ratioP1;P1;durP2;ratioP2;P2;SDS_P1;SDS_P2;PMS_P1;PMS_P2;Temp;Humidity;BMP_temperature;BMP_pressure;BME280_temperature;BME280_humidity;BME280_pressure;Samples;Min_cycle;Max_cycle;Signal;HPM_P1;HPM_P2
2022/10/17 00:01:21;;;;;;;8.23;2.70;;;;;;;12.69;100.00;99269.19;5053712;28;20021;-73
2022/10/17 00:03:46;;;;;;;4.05;2.40;;;;;;;12.75;100.00;99281.09;5054368;28;20536;-73
2022/10/17 00:06:14;;;;;;;3.30;2.28;;;;;;;12.88;100.00;99273.81;5048620;28;20086;-73
2022/10/17 00:08:41;;;;;;;8.25;2.40;;;;;;;12.98;100.00;99272.59;5045905;28;20664;-73
2022/10/17 00:11:12;;;;;;;3.60;2.30;;;;;;;12.85;100.00;99271.50;5044733;28;20496;-73
2022/10/17 00:13:37;;;;;;;6.82;2.42;;;;;;;12.86;100.00;99256.91;5053175;28;20037;-73
2022/10/17 00:16:03;;;;;;;7.53;2.33;;;;;;;13.06;100.00;99273.22;5054269;28;20197;-74
2022/10/17 00:18:29;;;;;;;4.80;2.25;;;;;;;12.99;100.00;99257.94;5051836;28;20032;-73
2022/10/17 00:20:54;;;;;;;5.63;2.47;;;;;;;13.00;100.00;99267.78;5047574;28;20037;-73
2022/10/17 00:23:19;;;;;;;12.15;2.20;;;;;;;13.01;100.00;99270.28;5048224;28;20029;-73
2022/10/17 00:25:45;;;;;;;7.75;2.20;;;;;;;12.94;100.00;99273.00;5053115;28;20024;-73
2022/10/17 00:28:11;;;;;;;3.88;2.00;;;;;;;12.80;100.00;99271.28;5046424;28;20020;-73
2022/10/17 00:30:36;;;;;;;5.40;1.80;;;;;;;12.75;100.00;99278.38;5047258;28;20025;-73
2022/10/17 00:33:02;;;;;;;3.30;2.30;;;;;;;12.75;100.00;99276.50;5052429;28;20090;-73
2022/10/17 00:35:27;;;;;;;4.50;2.10;;;;;;;12.91;100.00;99275.28;5051197;28;20024;-73
2022/10/17 00:37:53;;;;;;;4.68;2.33;;;;;;;12.93;100.00;99276.75;5048174;28;20033;-74
2022/10/17 00:40:18;;;;;;;12.75;2.03;;;;;;;12.76;100.00;99274.63;5047897;28;20092;-74
2022/10/17 00:42:43;;;;;;;4.18;2.22;;;;;;;12.69;100.00;99289.03;5051727;28;20025;-73
2022/10/17 00:45:29;;;;;;;3.20;2.20;;;;;;;12.56;100.00;99283.56;5053095;28;20029;-73
2022/10/17 00:48:04;;;;;;;6.28;2.22;;;;;;;12.42;100.00;99287.28;5045387;28;20033;-73
2022/10/17 00:50:30;;;;;;;5.13;1.67;;;;;;;12.41;100.00;99274.75;5051333;28;20416;-73
2022/10/17 00:53:00;;;;;;;6.30;2.50;;;;;;;12.38;100.00;99269.72;5049316;28;20111;-73
2022/10/17 00:55:32;;;;;;;5.75;2.20;;;;;;;12.52;100.00;99284.16;5047764;28;20391;-73
2022/10/17 00:58:01;;;;;;;8.65;2.15;;;;;;;12.70;100.00;99279.81;5049433;28;20036;-73
2022/10/17 01:00:27;;;;;;;6.82;1.98;;;;;;;12.66;100.00;99277.75;5048687;28;20025;-73
2022/10/17 01:02:52;;;;;;;6.05;1.80;;;;;;;12.70;100.00;99284.44;5051768;28;20028;-74
2022/10/17 01:05:19;;;;;;;3.08;1.90;;;;;;;12.53;100.00;99289.41;5044676;28;20028;-74
2022/10/17 01:07:46;;;;;;;10.93;2.50;;;;;;;12.38;100.00;99297.69;5045667;28;20406;-74
2022/10/17 01:10:12;;;;;;;5.40;2.20;;;;;;;12.33;100.00;99273.03;5049863;28;20029;-74
2022/10/17 01:12:51;;;;;;;3.65;2.50;;;;;;;12.24;100.00;99279.69;5049681;28;20024;-74
2022/10/17 01:15:40;;;;;;;5.10;2.47;;;;;;;11.91;100.00;99266.81;5049322;28;20495;-73
2022/10/17 01:18:08;;;;;;;;;;;;;;;12.07;100.00;99296.28;5045826;28;20029;-74
2022/10/17 01:20:45;;;;;;;7.10;2.08;;;;;;;12.01;100.00;99299.81;5043422;28;20018;-74
2022/10/17 01:23:29;;;;;;;10.43;2.45;;;;;;;11.92;100.00;99302.88;5046677;28;20063;-74
2022/10/17 01:26:18;;;;;;;5.68;2.38;;;;;;;11.88;100.00;99299.75;5049696;28;22527;-73
2022/10/17 01:29:10;;;;;;;9.20;2.58;;;;;;;11.82;100.00;99301.34;5046022;28;20033;-73
2022/10/17 01:32:06;;;;;;;4.47;2.17;;;;;;;11.65;100.00;99293.72;5053456;28;20021;-73
2022/10/17 01:34:37;;;;;;;6.18;1.98;;;;;;;11.65;100.00;99304.56;5049022;28;20215;-74
2022/10/17 01:37:10;;;;;;;3.58;2.33;;;;;;;11.49;100.00;99292.16;5041249;28;20484;-73
2022/10/17 01:39:45;;;;;;;5.15;2.58;;;;;;;11.57;100.00;99311.81;5044512;28;20029;-74
2022/10/17 01:42:32;;;;;;;5.00;2.60;;;;;;;11.55;100.00;99313.03;5050490;28;20554;-74
2022/10/17 01:44:59;;;;;;;4.07;2.20;;;;;;;11.45;100.00;99296.28;5046522;28;20086;-73
2022/10/17 01:47:29;;;;;;;5.10;2.40;;;;;;;11.57;100.00;99308.28;5082387;22;20049;-72
2022/10/17 01:49:56;;;;;;;;;;;;;;;11.51;100.00;99307.19;5056962;28;20024;-73
2022/10/17 01:52:25;;;;;;;4.43;2.55;;;;;;;11.49;100.00;99313.84;5062671;28;19917;-74
2022/10/17 01:54:55;;;;;;;4.55;2.47;;;;;;;11.42;100.00;99319.19;5057571;28;20151;-73
2022/10/17 01:57:35;;;;;;;7.78;2.28;;;;;;;11.42;100.00;99302.94;5053829;28;20040;-71
2022/10/17 02:00:03;;;;;;;7.32;2.30;;;;;;;11.50;100.00;99302.81;5064276;28;20457;-71
2022/10/17 02:02:30;;;;;;;5.07;2.03;;;;;;;11.50;100.00;99312.78;5073241;28;20020;-72
2022/10/17 02:04:56;;;;;;;5.78;2.25;;;;;;;11.71;100.00;99299.22;5063799;28;20051;-72
2022/10/17 02:07:21;;;;;;;5.63;2.45;;;;;;;11.93;100.00;99299.16;5067542;28;20071;-71
2022/10/17 02:09:47;;;;;;;7.20;2.50;;;;;;;12.04;100.00;99306.72;5058619;28;20042;-71
2022/10/17 02:12:30;;;;;;;11.40;2.20;;;;;;;12.06;100.00;99294.63;5056513;28;20021;-72
2022/10/17 02:15:22;;;;;;;5.50;2.17;;;;;;;11.68;100.00;99266.22;5056177;28;20056;-71
2022/10/17 02:18:02;;;;;;;8.23;2.28;;;;;;;11.61;100.00;99286.00;5047427;28;20044;-71
2022/10/17 02:20:34;;;;;;;11.38;2.65;;;;;;;11.71;100.00;99291.06;5063841;28;20032;-71
2022/10/17 02:23:02;;;;;;;6.07;2.20;;;;;;;11.59;100.00;99282.66;5056068;28;20044;-71
2022/10/17 02:25:40;;;;;;;5.70;2.17;;;;;;;11.48;100.00;99282.38;5075580;28;20026;-71
2022/10/17 02:28:37;;;;;;;4.15;2.38;;;;;;;11.41;100.00;99287.72;5070131;28;20029;-71
2022/10/17 02:31:16;;;;;;;10.02;2.20;;;;;;;11.40;100.00;99288.78;5060328;28;20029;-71
2022/10/17 02:33:55;;;;;;;4.43;2.42;;;;;;;11.29;100.00;99302.81;5058535;28;20031;-71
2022/10/17 02:36:24;;;;;;;9.35;2.25;;;;;;;11.28;100.00;99303.88;5064993;28;20059;-73
2022/10/17 02:38:52;;;;;;;14.60;2.20;;;;;;;11.18;100.00;99301.50;5058188;28;20089;-71
2022/10/17 02:41:19;;;;;;;7.10;2.20;;;;;;;11.28;100.00;99291.16;5061071;28;20270;-71
2022/10/17 02:43:47;;;;;;;5.18;2.08;;;;;;;11.44;100.00;99300.88;5060351;28;20448;-71
2022/10/17 02:46:21;;;;;;;5.78;2.10;;;;;;;11.47;100.00;99303.19;5068580;28;20079;-71
2022/10/17 02:48:51;;;;;;;3.42;2.17;;;;;;;11.48;100.00;99306.75;5068108;28;20119;-71
2022/10/17 02:51:31;;;;;;;4.78;2.25;;;;;;;11.48;100.00;99309.47;5069882;28;20032;-71
2022/10/17 02:53:59;;;;;;;5.10;2.10;;;;;;;11.46;100.00;99309.66;5060606;28;20024;-73
2022/10/17 02:56:27;;;;;;;3.67;2.15;;;;;;;11.39;100.00;99303.34;5063412;28;20101;-73
2022/10/17 02:58:56;;;;;;;8.05;2.20;;;;;;;11.32;100.00;99316.00;5066717;28;20021;-73
2022/10/17 03:01:23;;;;;;;11.05;2.28;;;;;;;11.17;100.00;99318.78;5068221;28;20033;-74
2022/10/17 03:03:48;;;;;;;5.72;3.33;;;;;;;11.28;100.00;99309.28;5065819;28;20024;-71
2022/10/17 03:06:13;;;;;;;5.75;1.80;;;;;;;11.11;100.00;99319.56;5065177;28;20146;-71
2022/10/17 03:08:38;;;;;;;5.57;2.25;;;;;;;11.05;100.00;99313.03;5069602;28;20559;-71
2022/10/17 03:11:04;;;;;;;6.00;2.25;;;;;;;10.91;100.00;99295.84;5067108;28;20039;-73
2022/10/17 03:13:29;;;;;;;2.58;1.90;;;;;;;10.92;100.00;99315.63;5071005;28;20028;-73
2022/10/17 03:15:55;;;;;;;10.43;2.58;;;;;;;10.89;100.00;99308.72;5079348;28;20440;-73
2022/10/17 03:18:20;;;;;;;3.47;2.00;;;;;;;10.83;100.00;99314.91;5075505;28;20028;-73
2022/10/17 03:20:46;;;;;;;7.30;2.72;;;;;;;10.87;100.00;99320.78;5064258;28;20029;-73
2022/10/17 03:23:11;;;;;;;7.13;2.30;;;;;;;10.85;100.00;99322.84;5061426;28;20021;-72
2022/10/17 03:25:36;;;;;;;3.58;2.33;;;;;;;10.78;100.00;99325.47;5067589;28;20378;-74
2022/10/17 03:28:04;;;;;;;8.27;3.35;;;;;;;10.78;100.00;99332.78;5066076;28;20039;-72
2022/10/17 03:30:30;;;;;;;7.82;2.45;;;;;;;10.74;100.00;99332.28;5064020;28;20521;-72
2022/10/17 03:32:58;;;;;;;3.15;2.10;;;;;;;10.55;100.00;99325.63;5071680;28;20147;-72
2022/10/17 03:35:24;;;;;;;5.03;2.15;;;;;;;10.45;100.00;99322.38;5071376;28;20028;-74
2022/10/17 03:37:49;;;;;;;3.35;1.73;;;;;;;10.33;100.00;99319.34;5061814;28;20028;-75
2022/10/17 03:40:14;;;;;;;8.80;2.47;;;;;;;10.33;100.00;99332.03;5063804;28;20036;-75
2022/10/17 03:42:40;;;;;;;4.75;2.42;;;;;;;10.40;100.00;99330.22;5070970;28;20024;-72
2022/10/17 03:45:05;;;;;;;3.53;2.03;;;;;;;10.27;100.00;99318.25;5073434;28;21410;-73
2022/10/17 03:47:31;;;;;;;5.55;1.88;;;;;;;10.37;100.00;99315.22;5061149;28;20032;-73
2022/10/17 03:49:56;;;;;;;6.53;1.92;;;;;;;10.33;100.00;99318.50;5071563;28;20519;-73
2022/10/17 03:52:21;;;;;;;4.88;2.17;;;;;;;10.28;100.00;99308.25;5070040;28;20028;-73
2022/10/17 03:54:49;;;;;;;6.80;2.47;;;;;;;10.58;100.00;99338.78;5075520;28;20035;-72
2022/10/17 03:57:14;;;;;;;7.80;2.38;;;;;;;10.42;100.00;99315.50;5065733;28;20021;-74
2022/10/17 03:59:40;;;;;;;4.55;2.60;;;;;;;10.42;100.00;99341.72;5066298;28;20461;-73
2022/10/17 04:02:05;;;;;;;5.70;2.72;;;;;;;10.26;100.00;99327.31;5074132;28;20033;-74
2022/10/17 04:04:30;;;;;;;5.07;3.08;;;;;;;10.47;100.00;99341.97;5074630;28;20024;-74
2022/10/17 04:06:55;;;;;;;6.57;2.70;;;;;;;10.38;100.00;99322.31;5058017;28;20485;-73
2022/10/17 04:09:21;;;;;;;9.90;2.70;;;;;;;10.50;100.00;99353.25;5063443;28;20024;-73
2022/10/17 04:11:46;;;;;;;10.57;3.00;;;;;;;10.39;100.00;99342.91;5072249;28;20025;-73
2022/10/17 04:14:11;;;;;;;10.95;3.10;;;;;;;10.48;100.00;99357.19;5065878;28;20482;-73
2022/10/17 04:16:37;;;;;;;4.93;2.90;;;;;;;10.56;100.00;99358.94;5069592;28;20035;-72
2022/10/17 04:19:03;;;;;;;7.78;2.70;;;;;;;10.49;100.00;99337.22;5064767;28;20047;-73
2022/10/17 04:21:28;;;;;;;13.85;3.17;;;;;;;10.58;100.00;99354.19;5063508;28;20506;-73
2022/10/17 04:23:57;;;;;;;13.43;3.47;;;;;;;10.59;100.00;99369.41;5063434;28;20074;-72
2022/10/17 04:26:23;;;;;;;7.07;3.08;;;;;;;10.51;100.00;99371.19;5073103;28;20114;-73
2022/10/17 04:28:49;;;;;;;3.30;2.40;;;;;;;10.23;100.00;99343.09;5059993;28;20123;-72
2022/10/17 04:31:15;;;;;;;7.15;2.42;;;;;;;10.26;100.00;99351.66;5064473;28;20036;-72
2022/10/17 04:33:40;;;;;;;4.28;2.60;;;;;;;10.18;100.00;99359.06;5059458;28;20390;-72
2022/10/17 04:36:10;;;;;;;7.40;2.70;;;;;;;10.27;100.00;99366.91;5057760;28;20036;-72
2022/10/17 04:38:35;;;;;;;3.63;2.33;;;;;;;10.19;100.00;99375.09;5061164;28;20025;-72
2022/10/17 04:41:03;;;;;;;5.72;2.70;;;;;;;10.09;100.00;99372.66;5059337;28;20025;-73
2022/10/17 04:43:30;;;;;;;5.00;2.20;;;;;;;10.07;100.00;99358.50;5070991;28;20103;-72
2022/10/17 04:46:00;;;;;;;7.85;2.55;;;;;;;10.14;100.00;99373.94;5071060;28;20035;-71
2022/10/17 04:48:27;;;;;;;8.02;2.63;;;;;;;10.22;100.00;99377.44;5066114;28;20059;-72
2022/10/17 04:50:58;;;;;;;3.67;2.17;;;;;;;10.12;100.00;99370.63;5055737;28;20029;-75
2022/10/17 04:53:23;;;;;;;4.00;2.28;;;;;;;10.15;100.00;99381.06;5067535;28;20438;-72
2022/10/17 04:55:49;;;;;;;8.20;2.70;;;;;;;10.17;100.00;99384.44;5057663;28;20159;-74
2022/10/17 04:58:15;;;;;;;5.97;2.08;;;;;;;10.16;100.00;99380.03;5062188;28;20032;-71
2022/10/17 05:00:41;;;;;;;4.70;2.33;;;;;;;10.16;100.00;99388.97;5063390;28;21614;-72
2022/10/17 05:03:06;;;;;;;4.35;2.30;;;;;;;10.26;100.00;99388.69;5057389;28;20589;-72
2022/10/17 05:05:31;;;;;;;6.95;2.63;;;;;;;10.39;100.00;99396.19;5061599;28;20028;-73
2022/10/17 05:07:57;;;;;;;5.57;2.42;;;;;;;10.35;100.00;99389.47;5060435;28;20485;-74
2022/10/17 05:10:22;;;;;;;4.13;2.40;;;;;;;10.51;100.00;99400.94;5066359;28;20024;-74
2022/10/17 05:12:49;;;;;;;4.35;2.08;;;;;;;10.55;100.00;99404.09;5057231;28;20025;-73
2022/10/17 05:15:15;;;;;;;7.60;2.25;;;;;;;10.68;100.00;99392.59;5060556;28;20086;-72
2022/10/17 05:17:40;;;;;;;5.90;2.17;;;;;;;10.57;100.00;99393.94;5060614;28;20032;-69
2022/10/17 05:20:06;;;;;;;6.70;2.40;;;;;;;10.50;100.00;99376.75;5072666;28;20032;-70
2022/10/17 05:22:31;;;;;;;4.30;2.22;;;;;;;10.48;100.00;99386.97;5069181;28;20032;-70
2022/10/17 05:24:57;;;;;;;4.00;2.17;;;;;;;10.30;100.00;99373.81;5063389;28;20025;-71
2022/10/17 05:27:22;;;;;;;4.18;2.08;;;;;;;10.35;100.00;99378.66;5059738;28;20049;-70
2022/10/17 05:29:47;;;;;;;5.70;2.08;;;;;;;10.21;100.00;99362.22;5067978;28;20089;-75
2022/10/17 05:32:14;;;;;;;5.93;2.90;;;;;;;10.25;100.00;99360.81;5062212;28;20110;-75
2022/10/17 05:34:39;;;;;;;3.60;2.05;;;;;;;10.11;100.00;99342.72;5063750;28;20028;-73
2022/10/17 05:37:04;;;;;;;4.70;2.15;;;;;;;10.40;100.00;99382.50;5060370;28;20028;-74
2022/10/17 05:39:30;;;;;;;6.35;2.80;;;;;;;10.34;100.00;99374.28;5057417;28;20024;-73
2022/10/17 05:41:55;;;;;;;5.88;2.33;;;;;;;10.44;100.00;99380.22;5066565;28;20497;-73
2022/10/17 05:44:20;;;;;;;13.38;2.90;;;;;;;10.46;100.00;99370.06;5068399;28;20063;-72
2022/10/17 05:46:48;;;;;;;7.25;2.42;;;;;;;10.51;100.00;99375.75;5061104;28;20482;-73
2022/10/17 05:49:13;;;;;;;3.92;2.25;;;;;;;10.59;100.00;99385.63;5060877;28;20033;-72
2022/10/17 05:51:38;;;;;;;3.88;2.05;;;;;;;10.60;100.00;99384.59;5064915;28;20082;-71
2022/10/17 05:54:05;;;;;;;6.28;2.40;;;;;;;10.52;100.00;99378.25;5055319;28;20083;-71
2022/10/17 05:56:31;;;;;;;8.10;2.50;;;;;;;10.59;100.00;99381.06;5063457;28;20462;-71
2022/10/17 05:58:56;;;;;;;3.70;2.40;;;;;;;10.31;100.00;99359.25;5058761;28;20025;-71
2022/10/17 06:01:21;;;;;;;7.90;2.33;;;;;;;10.66;100.00;99403.63;5060240;28;20025;-74
2022/10/17 06:03:47;;;;;;;3.88;2.30;;;;;;;10.77;100.00;99396.03;5063631;28;20393;-74
2022/10/17 06:06:14;;;;;;;5.55;2.50;;;;;;;10.93;100.00;99401.25;5058954;28;20021;-74
2022/10/17 06:08:39;;;;;;;5.22;2.30;;;;;;;11.02;100.00;99388.41;5056955;28;20098;-74
2022/10/17 06:11:05;;;;;;;5.57;2.08;;;;;;;11.19;100.00;99379.84;5060321;28;20020;-71
2022/10/17 06:13:30;;;;;;;4.97;2.58;;;;;;;11.33;100.00;99369.13;5057340;28;20601;-71
2022/10/17 06:15:56;;;;;;;10.32;2.03;;;;;;;12.25;100.00;99368.19;5065291;28;20033;-72
2022/10/17 06:18:21;;;;;;;6.38;2.20;;;;;;;14.25;100.00;99375.63;5071725;28;20032;-72
2022/10/17 06:20:47;;;;;;;5.90;1.50;;;;;;;15.77;100.00;99364.13;5066303;28;20028;-73
2022/10/17 06:23:12;;;;;;;7.85;1.83;;;;;;;16.10;100.00;99331.06;5072303;28;20481;-73
2022/10/17 06:25:37;;;;;;;2.33;1.60;;;;;;;15.79;100.00;99348.38;5063015;28;20033;-73
2022/10/17 06:28:03;;;;;;;5.38;1.92;;;;;;;14.78;100.00;99352.00;5053327;28;20021;-73
2022/10/17 06:30:29;;;;;;;2.78;1.48;;;;;;;14.27;100.00;99366.41;5059084;28;20111;-68
2022/10/17 06:32:54;;;;;;;8.65;2.20;;;;;;;14.47;100.00;99367.19;5065489;28;20025;-70
2022/10/17 06:35:19;;;;;;;13.02;2.30;;;;;;;15.36;100.00;99367.38;5072695;28;20540;-73
2022/10/17 06:37:45;;;;;;;10.20;1.88;;;;;;;16.07;100.00;99364.28;5055385;28;20614;-69
2022/10/17 06:40:11;;;;;;;14.32;2.20;;;;;;;17.01;100.00;99364.88;5064023;28;20043;-69
2022/10/17 06:42:37;;;;;;;5.63;2.15;;;;;;;17.68;100.00;99367.44;5064784;28;20024;-70
2022/10/17 06:45:03;;;;;;;18.98;2.97;;;;;;;17.12;100.00;99368.72;5065231;28;20032;-71
2022/10/17 06:47:28;;;;;;;8.85;2.50;;;;;;;17.47;100.00;99384.38;5060861;28;20020;-71
2022/10/17 06:49:54;;;;;;;16.92;2.80;;;;;;;17.85;100.00;99384.03;5067906;28;20436;-72
2022/10/17 06:52:19;;;;;;;12.73;2.53;;;;;;;19.09;100.00;99377.41;5065613;28;20031;-72
2022/10/17 06:54:44;;;;;;;10.73;2.15;;;;;;;21.08;95.91;99376.09;5069611;28;20562;-72
2022/10/17 06:57:10;;;;;;;5.80;1.70;;;;;;;22.27;75.71;99376.91;5063890;28;20028;-72
2022/10/17 06:59:35;;;;;;;4.28;1.55;;;;;;;23.03;71.96;99382.00;5061348;28;20532;-72
2022/10/17 07:02:01;;;;;;;13.93;1.98;;;;;;;24.30;67.40;99379.59;5069935;28;20466;-71
2022/10/17 07:04:26;;;;;;;9.43;2.40;;;;;;;24.01;62.76;99392.06;5068199;28;20033;-72
2022/10/17 07:06:52;;;;;;;5.68;2.65;;;;;;;24.91;60.35;99373.88;5055861;28;20923;-73
2022/10/17 07:09:18;;;;;;;6.15;2.05;;;;;;;24.67;58.60;99387.53;5055543;28;20060;-74
2022/10/17 07:11:43;;;;;;;7.07;2.00;;;;;;;24.54;61.28;99379.84;5057222;28;20032;-73
2022/10/17 07:14:09;;;;;;;4.65;2.00;;;;;;;25.35;57.02;99395.28;5067639;28;20196;-74
2022/10/17 07:16:34;;;;;;;7.07;2.10;;;;;;;26.04;56.01;99389.78;5058728;28;20020;-73
2022/10/17 07:19:00;;;;;;;12.63;3.17;;;;;;;26.47;52.25;99381.63;5065144;28;20033;-73
2022/10/17 07:21:25;;;;;;;9.40;1.80;;;;;;;26.63;51.98;99392.28;5059395;28;20013;-73
2022/10/17 07:23:51;;;;;;;8.68;1.85;;;;;;;26.13;52.36;99399.16;5068599;28;20029;-74
2022/10/17 07:26:17;;;;;;;8.40;1.90;;;;;;;27.05;52.85;99392.59;5061976;28;20107;-73
2022/10/17 07:28:45;;;;;;;7.63;1.83;;;;;;;27.44;49.83;99395.13;5061537;28;20033;-73
2022/10/17 07:31:13;;;;;;;6.60;1.75;;;;;;;27.50;49.18;99402.25;5063030;28;20025;-73
2022/10/17 07:33:39;;;;;;;8.43;1.63;;;;;;;26.73;50.32;99419.09;5062190;28;20052;-74
2022/10/17 07:36:05;;;;;;;11.82;2.05;;;;;;;26.39;53.02;99417.19;5062747;28;20545;-74
2022/10/17 07:38:32;;;;;;;7.63;1.90;;;;;;;26.83;51.47;99412.59;5052607;28;20494;-74
2022/10/17 07:41:04;;;;;;;4.80;1.08;;;;;;;27.48;49.58;99407.31;5050776;28;20069;-75
2022/10/17 07:43:30;;;;;;;5.40;1.67;;;;;;;28.09;49.87;99418.63;5055426;28;20111;-74
2022/10/17 07:45:56;;;;;;;6.35;1.55;;;;;;;28.07;50.42;99423.66;5061574;28;20025;-74
2022/10/17 07:48:22;;;;;;;10.20;1.40;;;;;;;29.00;48.14;99418.88;5072417;28;20446;-75
2022/10/17 07:50:49;;;;;;;7.55;1.50;;;;;;;29.08;47.27;99420.09;5061583;28;20123;-72
2022/10/17 07:53:14;;;;;;;6.82;2.17;;;;;;;29.02;46.89;99416.56;5060321;28;20469;-78
2022/10/17 07:55:40;;;;;;;7.40;1.48;;;;;;;28.92;47.82;99405.63;5061036;28;20036;-76
2022/10/17 07:58:06;;;;;;;7.85;1.20;;;;;;;27.53;49.76;99436.97;5059987;28;20470;-77
2022/10/17 08:00:32;;;;;;;8.55;1.40;;;;;;;25.99;54.06;99421.16;5063544;28;20028;-77
2022/10/17 08:02:57;;;;;;;6.47;1.58;;;;;;;26.56;51.25;99407.63;5067248;28;20030;-77
2022/10/17 08:05:23;;;;;;;4.90;1.40;;;;;;;24.93;56.31;99436.16;5070056;28;20135;-72
2022/10/17 08:07:48;;;;;;;3.08;1.38;;;;;;;24.55;59.83;99437.66;5067408;28;20052;-72
2022/10/17 08:10:14;;;;;;;5.60;1.30;;;;;;;24.48;59.80;99443.47;5063133;28;20401;-68
2022/10/17 08:12:40;;;;;;;1.90;1.42;;;;;;;25.10;59.17;99433.06;5066174;28;20028;-72
2022/10/17 08:15:06;;;;;;;4.25;1.30;;;;;;;25.23;58.37;99447.41;5048577;28;20029;-75
2022/10/17 08:17:36;;;;;;;3.55;1.58;;;;;;;24.82;58.71;99442.03;5071236;28;20028;-75
2022/10/17 08:20:05;;;;;;;5.80;1.33;;;;;;;25.58;57.13;99449.16;5060807;28;20029;-75
2022/10/17 08:22:31;;;;;;;;;;;;;;;26.19;56.91;99448.72;5070285;28;20020;-75
2022/10/17 08:24:56;;;;;;;5.88;1.75;;;;;;;26.49;54.14;99441.25;5058402;28;19935;-75
2022/10/17 08:27:26;;;;;;;6.15;1.63;;;;;;;26.31;55.40;99442.81;5065887;28;20434;-75
2022/10/17 08:29:52;;;;;;;9.68;1.67;;;;;;;26.90;52.70;99443.59;5064577;28;20471;-75
2022/10/17 08:32:19;;;;;;;16.60;1.95;;;;;;;26.67;54.49;99443.31;5070435;28;20016;-70
2022/10/17 08:34:45;;;;;;;2.75;1.40;;;;;;;26.59;55.13;99426.47;5055114;28;20521;-71
2022/10/17 08:37:12;;;;;;;5.05;1.30;;;;;;;27.82;51.31;99422.94;5055641;28;20033;-71
2022/10/17 08:39:38;;;;;;;3.67;1.40;;;;;;;27.90;49.45;99449.22;5058230;28;20028;-71
2022/10/17 08:42:10;;;;;;;6.50;1.25;;;;;;;28.38;49.62;99451.78;5064889;28;20027;-71
2022/10/17 08:45:06;;;;;;;2.83;1.30;;;;;;;29.12;47.98;99450.97;5054333;28;20028;-71
2022/10/17 08:47:44;;;;;;;3.28;1.17;;;;;;;27.04;51.95;99452.06;5067709;28;20029;-71
2022/10/17 08:50:41;;;;;;;6.53;1.30;;;;;;;28.58;48.73;99423.59;5064586;28;20028;-72
2022/10/17 08:53:22;;;;;;;2.80;1.17;;;;;;;30.22;44.36;99436.72;5067489;28;20032;-72
2022/10/17 08:55:50;;;;;;;4.28;1.02;;;;;;;29.98;44.01;99453.78;5073821;28;20032;-72
2022/10/17 08:58:27;;;;;;;3.60;1.10;;;;;;;31.22;42.37;99446.59;5057215;28;20056;-72
2022/10/17 09:01:12;;;;;;;6.60;1.20;;;;;;;29.60;44.07;99448.50;5054228;28;20027;-71
2022/10/17 09:03:51;;;;;;;3.42;1.30;;;;;;;27.78;47.79;99443.28;5066151;28;20078;-72
2022/10/17 09:06:34;;;;;;;4.90;1.55;;;;;;;26.61;50.26;99454.75;5077239;28;20103;-71
2022/10/17 09:09:13;;;;;;;4.18;0.90;;;;;;;26.24;51.73;99445.09;5069263;28;20102;-72
2022/10/17 09:11:56;;;;;;;3.47;1.00;;;;;;;26.07;52.44;99456.63;5058431;28;20067;-71
2022/10/17 09:15:00;;;;;;;3.45;1.10;;;;;;;26.01;53.24;99464.13;5069119;28;20048;-72
2022/10/17 09:17:51;;;;;;;4.30;1.30;;;;;;;26.92;51.69;99465.53;5054324;28;20040;-71
2022/10/17 09:20:19;;;;;;;2.10;1.00;;;;;;;27.53;50.67;99462.81;5060486;28;20048;-71
2022/10/17 09:22:55;;;;;;;3.80;1.10;;;;;;;28.32;48.49;99452.97;5058626;28;20054;-71
2022/10/17 09:25:20;;;;;;;3.28;1.23;;;;;;;29.68;46.11;99445.03;5067682;28;20647;-71
2022/10/17 09:28:09;;;;;;;2.60;1.10;;;;;;;29.00;46.72;99452.31;5069052;28;20025;-71
2022/10/17 09:30:41;;;;;;;2.78;1.02;;;;;;;29.25;45.61;99453.75;5064971;28;20078;-72
2022/10/17 09:33:35;;;;;;;2.67;1.13;;;;;;;29.39;46.76;99455.69;5059460;28;20111;-72
2022/10/17 09:36:03;;;;;;;6.60;1.10;;;;;;;30.09;44.69;99445.97;5063841;28;20109;-72
2022/10/17 09:38:40;;;;;;;2.38;1.00;;;;;;;30.19;43.97;99417.00;5058428;28;20096;-72
2022/10/17 09:41:31;;;;;;;7.47;1.27;;;;;;;28.72;46.95;99423.59;5056575;28;20474;-72
2022/10/17 09:43:58;;;;;;;9.32;1.83;;;;;;;28.92;47.39;99432.69;5058758;28;20036;-71
2022/10/17 09:46:35;;;;;;;3.42;1.13;;;;;;;28.18;48.88;99439.84;5061189;28;20029;-72
2022/10/17 09:49:07;;;;;;;0.93;0.77;;;;;;;29.49;46.30;99439.53;5056355;28;20040;-71
2022/10/17 09:51:32;;;;;;;5.13;1.10;;;;;;;30.37;44.54;99427.16;5055649;28;20044;-72
2022/10/17 09:54:03;;;;;;;1.30;0.88;;;;;;;29.68;45.30;99435.81;5066642;28;20028;-71
2022/10/17 09:56:29;;;;;;;2.15;0.95;;;;;;;29.91;44.35;99431.91;5070268;28;20051;-72
2022/10/17 09:58:58;;;;;;;5.50;1.08;;;;;;;30.68;43.41;99427.16;5067726;28;20074;-71
2022/10/17 10:01:27;;;;;;;4.40;1.10;;;;;;;30.98;42.76;99427.44;5062514;28;20371;-72
2022/10/17 10:04:11;;;;;;;4.57;1.00;;;;;;;31.13;42.95;99432.59;5057216;28;20625;-71
2022/10/17 10:06:37;;;;;;;2.28;1.02;;;;;;;32.03;41.73;99408.84;5047226;28;20093;-72
2022/10/17 10:09:04;;;;;;;3.47;0.90;;;;;;;31.69;41.61;99421.66;5050764;28;20032;-71
2022/10/17 10:11:56;;;;;;;8.20;1.10;;;;;;;31.19;42.06;99425.69;5054222;28;20045;-73
2022/10/17 10:14:34;;;;;;;7.43;1.00;;;;;;;31.20;42.28;99427.34;5067315;28;20050;-75
2022/10/17 10:17:02;;;;;;;2.05;1.10;;;;;;;31.78;40.77;99427.25;5059148;28;20066;-74
2022/10/17 10:19:32;;;;;;;5.53;0.88;;;;;;;32.49;39.50;99405.31;5048629;28;20036;-73
2022/10/17 10:22:03;;;;;;;1.45;1.00;;;;;;;31.95;40.08;99430.09;5061706;28;20035;-74
2022/10/17 10:24:29;;;;;;;1.67;0.70;;;;;;;32.48;39.20;99425.22;5051294;28;20493;-74
2022/10/17 10:27:00;;;;;;;4.80;0.98;;;;;;;30.99;40.74;99431.88;5066563;28;20043;-73
2022/10/17 10:29:31;;;;;;;5.70;1.02;;;;;;;31.92;40.49;99425.13;5075106;28;20035;-73
2022/10/17 10:32:23;;;;;;;4.75;0.95;;;;;;;31.42;41.33;99434.00;5061732;28;20029;-73
2022/10/17 10:34:57;;;;;;;2.80;1.05;;;;;;;31.79;40.30;99432.53;5058797;28;20494;-73
2022/10/17 10:37:26;;;;;;;3.08;1.10;;;;;;;32.57;39.46;99422.41;5071093;28;20036;-74
2022/10/17 10:39:58;;;;;;;3.78;1.30;;;;;;;30.17;43.20;99436.84;5070961;28;20035;-74
2022/10/17 10:42:25;;;;;;;1.85;0.98;;;;;;;31.01;42.61;99433.19;5056457;28;20099;-71
2022/10/17 10:44:52;;;;;;;6.63;1.15;;;;;;;31.07;42.78;99436.66;5054039;28;20029;-71
2022/10/17 10:47:21;;;;;;;5.53;1.10;;;;;;;32.19;41.56;99437.13;5061268;28;20032;-72
2022/10/17 10:49:49;;;;;;;3.47;0.90;;;;;;;31.14;41.08;99433.41;5052891;28;20029;-71
2022/10/17 10:52:40;;;;;;;7.45;1.70;;;;;;;32.12;40.35;99434.00;5064233;28;20025;-72
2022/10/17 10:55:14;;;;;;;3.15;1.05;;;;;;;32.85;39.67;99434.81;5058001;28;20035;-73
2022/10/17 10:57:43;;;;;;;1.42;1.00;;;;;;;33.29;38.43;99426.19;5064079;28;20126;-73
2022/10/17 11:00:16;;;;;;;11.77;1.30;;;;;;;33.79;37.60;99420.56;5056923;28;20052;-73
2022/10/17 11:03:00;;;;;;;2.38;0.80;;;;;;;33.04;38.77;99427.97;5050798;28;20032;-73
2022/10/17 11:05:48;;;;;;;2.30;1.00;;;;;;;34.21;37.10;99426.13;5057810;28;20025;-74
2022/10/17 11:08:23;;;;;;;4.65;0.90;;;;;;;33.89;37.65;99421.31;5060814;28;20028;-73
2022/10/17 11:10:51;;;;;;;5.80;0.93;;;;;;;34.22;37.93;99429.78;5063501;28;20028;-73
2022/10/17 11:13:27;;;;;;;9.65;1.42;;;;;;;33.83;38.03;99418.72;5055149;28;20033;-74
2022/10/17 11:16:22;;;;;;;8.93;1.70;;;;;;;34.16;38.11;99423.53;5056207;28;20401;-74
2022/10/17 11:18:52;;;;;;;1.52;0.80;;;;;;;33.93;37.73;99420.28;5066584;28;20025;-74
2022/10/17 11:21:33;;;;;;;1.75;1.00;;;;;;;34.16;35.63;99420.72;5063234;28;20024;-75
2022/10/17 11:24:13;;;;;;;2.28;1.00;;;;;;;34.09;35.82;99428.06;5060562;28;20111;-74
2022/10/17 11:26:52;;;;;;;3.58;0.80;;;;;;;33.03;38.33;99423.56;5065715;28;20051;-75
2022/10/17 11:29:18;;;;;;;2.20;1.02;;;;;;;34.10;37.33;99405.28;5061400;28;20028;-75
2022/10/17 11:31:51;;;;;;;3.60;0.93;;;;;;;32.94;38.16;99424.38;5061208;28;20025;-75
2022/10/17 11:34:24;;;;;;;2.22;1.00;;;;;;;32.33;39.04;99423.75;5062253;28;20103;-75
2022/10/17 11:36:55;;;;;;;4.25;1.10;;;;;;;32.07;39.70;99421.84;5063394;28;20047;-75
2022/10/17 11:39:48;;;;;;;3.42;1.27;;;;;;;32.93;38.22;99419.94;5062457;28;20104;-75
2022/10/17 11:42:39;;;;;;;6.00;1.15;;;;;;;33.10;37.49;99426.66;5061512;28;20013;-75